sensor_id;sensor_type;location;lat;lon;timestamp;P1;durP1;ratioP1;P2;durP2;ratioP2
64842;SDS011;51310;52.198;5.422;2024-01-10T00:00:07;5.22;;;1.73;;
64842;SDS011;51310;52.198;5.422;2024-01-10T00:02:34;6.63;;;2.22;;
64842;SDS011;51310;52.198;5.422;2024-01-10T00:05:00;4.05;;;1.70;;
64842;SDS011;51310;52.198;5.422;2024-01-10T00:07:26;8.32;;;2.85;;
64842;SDS011;51310;52.198;5.422;2024-01-10T00:09:52;3.50;;;1.75;;
64842;SDS011;51310;52.198;5.422;2024-01-10T00:12:18;3.85;;;1.95;;
64842;SDS011;51310;52.198;5.422;2024-01-10T00:14:44;5.10;;;2.70;;
64842;SDS011;51310;52.198;5.422;2024-01-10T00:17:10;4.25;;;1.85;;
64842;SDS011;51310;52.198;5.422;2024-01-10T00:19:36;3.45;;;1.77;;
64842;SDS011;51310;52.198;5.422;2024-01-10T00:22:02;2.95;;;1.70;;
64842;SDS011;51310;52.198;5.422;2024-01-10T00:24:28;3.88;;;1.80;;
64842;SDS011;51310;52.198;5.422;2024-01-10T00:26:54;3.35;;;1.67;;
64842;SDS011;51310;52.198;5.422;2024-01-10T00:29:20;5.47;;;2.15;;
64842;SDS011;51310;52.198;5.422;2024-01-10T00:31:46;4.97;;;2.25;;
64842;SDS011;51310;52.198;5.422;2024-01-10T00:34:13;3.60;;;2.20;;
64842;SDS011;51310;52.198;5.422;2024-01-10T00:36:38;4.18;;;2.22;;
64842;SDS011;51310;52.198;5.422;2024-01-10T00:39:04;6.68;;;1.75;;
64842;SDS011;51310;52.198;5.422;2024-01-10T00:41:31;7.13;;;2.80;;
64842;SDS011;51310;52.198;5.422;2024-01-10T00:43:57;3.53;;;2.15;;
64842;SDS011;51310;52.198;5.422;2024-01-10T00:46:23;6.25;;;2.17;;
64842;SDS011;51310;52.198;5.422;2024-01-10T00:48:49;6.60;;;2.67;;
64842;SDS011;51310;52.198;5.422;2024-01-10T00:51:15;5.45;;;2.95;;
64842;SDS011;51310;52.198;5.422;2024-01-10T00:53:41;10.45;;;3.00;;
64842;SDS011;51310;52.198;5.422;2024-01-10T00:56:07;3.67;;;2.47;;
64842;SDS011;51310;52.198;5.422;2024-01-10T00:58:33;2.30;;;1.48;;
64842;SDS011;51310;52.198;5.422;2024-01-10T01:01:00;4.93;;;2.05;;
64842;SDS011;51310;52.198;5.422;2024-01-10T01:03:26;4.28;;;2.35;;
64842;SDS011;51310;52.198;5.422;2024-01-10T01:05:52;5.22;;;1.92;;
64842;SDS011;51310;52.198;5.422;2024-01-10T01:08:18;3.30;;;1.85;;
64842;SDS011;51310;52.198;5.422;2024-01-10T01:10:44;7.60;;;2.40;;
64842;SDS011;51310;52.198;5.422;2024-01-10T01:13:10;7.57;;;2.05;;
64842;SDS011;51310;52.198;5.422;2024-01-10T01:15:36;5.18;;;2.17;;
64842;SDS011;51310;52.198;5.422;2024-01-10T01:18:02;5.38;;;2.00;;
64842;SDS011;51310;52.198;5.422;2024-01-10T01:20:28;3.55;;;2.47;;
64842;SDS011;51310;52.198;5.422;2024-01-10T01:22:54;3.35;;;1.63;;
64842;SDS011;51310;52.198;5.422;2024-01-10T01:25:19;4.40;;;1.98;;
64842;SDS011;51310;52.198;5.422;2024-01-10T01:27:45;6.18;;;1.98;;
64842;SDS011;51310;52.198;5.422;2024-01-10T01:30:11;4.20;;;2.28;;
64842;SDS011;51310;52.198;5.422;2024-01-10T01:32:38;5.47;;;3.22;;
64842;SDS011;51310;52.198;5.422;2024-01-10T01:35:04;4.05;;;2.00;;
64842;SDS011;51310;52.198;5.422;2024-01-10T01:37:30;5.68;;;2.42;;
64842;SDS011;51310;52.198;5.422;2024-01-10T01:39:56;5.13;;;2.75;;
64842;SDS011;51310;52.198;5.422;2024-01-10T01:42:22;7.45;;;3.13;;
64842;SDS011;51310;52.198;5.422;2024-01-10T01:44:48;5.70;;;2.35;;
64842;SDS011;51310;52.198;5.422;2024-01-10T01:47:14;7.10;;;1.98;;
64842;SDS011;51310;52.198;5.422;2024-01-10T01:49:41;7.22;;;2.25;;
64842;SDS011;51310;52.198;5.422;2024-01-10T01:52:08;7.40;;;2.33;;
64842;SDS011;51310;52.198;5.422;2024-01-10T01:54:35;5.07;;;2.28;;
64842;SDS011;51310;52.198;5.422;2024-01-10T01:57:02;3.67;;;1.98;;
64842;SDS011;51310;52.198;5.422;2024-01-10T01:59:28;3.72;;;2.20;;
64842;SDS011;51310;52.198;5.422;2024-01-10T02:01:55;7.15;;;2.97;;
64842;SDS011;51310;52.198;5.422;2024-01-10T02:04:23;5.07;;;2.40;;
64842;SDS011;51310;52.198;5.422;2024-01-10T02:06:50;5.75;;;2.05;;
64842;SDS011;51310;52.198;5.422;2024-01-10T02:09:16;8.75;;;3.10;;
64842;SDS011;51310;52.198;5.422;2024-01-10T02:11:42;4.70;;;2.35;;
64842;SDS011;51310;52.198;5.422;2024-01-10T02:14:08;7.82;;;2.45;;
64842;SDS011;51310;52.198;5.422;2024-01-10T02:16:35;4.00;;;2.08;;
64842;SDS011;51310;52.198;5.422;2024-01-10T02:19:01;4.60;;;2.20;;
64842;SDS011;51310;52.198;5.422;2024-01-10T02:21:45;6.90;;;2.53;;
64842;SDS011;51310;52.198;5.422;2024-01-10T02:24:11;6.20;;;2.38;;
64842;SDS011;51310;52.198;5.422;2024-01-10T02:26:37;10.10;;;3.15;;
64842;SDS011;51310;52.198;5.422;2024-01-10T02:29:04;6.15;;;2.75;;
64842;SDS011;51310;52.198;5.422;2024-01-10T02:31:30;7.97;;;3.78;;
64842;SDS011;51310;52.198;5.422;2024-01-10T02:33:56;8.38;;;3.03;;
64842;SDS011;51310;52.198;5.422;2024-01-10T02:36:22;4.53;;;2.63;;
64842;SDS011;51310;52.198;5.422;2024-01-10T02:38:48;9.52;;;2.08;;
64842;SDS011;51310;52.198;5.422;2024-01-10T02:41:15;5.28;;;2.35;;
64842;SDS011;51310;52.198;5.422;2024-01-10T02:43:41;4.00;;;2.10;;
64842;SDS011;51310;52.198;5.422;2024-01-10T02:46:07;5.07;;;2.58;;
64842;SDS011;51310;52.198;5.422;2024-01-10T02:48:33;5.50;;;2.40;;
64842;SDS011;51310;52.198;5.422;2024-01-10T02:50:58;6.80;;;2.35;;
64842;SDS011;51310;52.198;5.422;2024-01-10T02:53:24;7.78;;;3.00;;
64842;SDS011;51310;52.198;5.422;2024-01-10T02:55:50;6.60;;;2.97;;
64842;SDS011;51310;52.198;5.422;2024-01-10T02:58:16;7.22;;;2.47;;
64842;SDS011;51310;52.198;5.422;2024-01-10T03:00:42;14.52;;;3.53;;
64842;SDS011;51310;52.198;5.422;2024-01-10T03:03:08;4.57;;;2.63;;
64842;SDS011;51310;52.198;5.422;2024-01-10T03:05:34;6.18;;;2.80;;
64842;SDS011;51310;52.198;5.422;2024-01-10T03:07:59;8.48;;;3.40;;
64842;SDS011;51310;52.198;5.422;2024-01-10T03:10:27;8.25;;;2.50;;
64842;SDS011;51310;52.198;5.422;2024-01-10T03:12:53;4.43;;;1.83;;
64842;SDS011;51310;52.198;5.422;2024-01-10T03:15:19;5.18;;;2.15;;
64842;SDS011;51310;52.198;5.422;2024-01-10T03:17:46;6.00;;;2.97;;
64842;SDS011;51310;52.198;5.422;2024-01-10T03:20:12;4.10;;;3.00;;
64842;SDS011;51310;52.198;5.422;2024-01-10T03:22:38;6.35;;;2.17;;
64842;SDS011;51310;52.198;5.422;2024-01-10T03:25:04;9.18;;;2.67;;
64842;SDS011;51310;52.198;5.422;2024-01-10T03:27:30;5.78;;;3.40;;
64842;SDS011;51310;52.198;5.422;2024-01-10T03:29:55;5.28;;;2.95;;
64842;SDS011;51310;52.198;5.422;2024-01-10T03:32:21;3.45;;;2.38;;
64842;SDS011;51310;52.198;5.422;2024-01-10T03:34:47;7.72;;;2.47;;
64842;SDS011;51310;52.198;5.422;2024-01-10T03:37:16;5.00;;;2.97;;
64842;SDS011;51310;52.198;5.422;2024-01-10T03:39:42;4.75;;;2.70;;
64842;SDS011;51310;52.198;5.422;2024-01-10T03:42:08;3.75;;;2.67;;
64842;SDS011;51310;52.198;5.422;2024-01-10T03:44:34;4.53;;;2.85;;
64842;SDS011;51310;52.198;5.422;2024-01-10T03:46:59;5.93;;;3.10;;
64842;SDS011;51310;52.198;5.422;2024-01-10T03:49:25;5.65;;;2.40;;
64842;SDS011;51310;52.198;5.422;2024-01-10T03:51:51;4.50;;;2.38;;
64842;SDS011;51310;52.198;5.422;2024-01-10T03:54:17;8.00;;;3.17;;
64842;SDS011;51310;52.198;5.422;2024-01-10T03:56:43;5.68;;;2.78;;
64842;SDS011;51310;52.198;5.422;2024-01-10T03:59:09;4.90;;;2.70;;
64842;SDS011;51310;52.198;5.422;2024-01-10T04:01:35;5.57;;;2.28;;
64842;SDS011;51310;52.198;5.422;2024-01-10T04:04:04;7.55;;;2.70;;
64842;SDS011;51310;52.198;5.422;2024-01-10T04:06:30;3.92;;;1.90;;
64842;SDS011;51310;52.198;5.422;2024-01-10T04:08:56;3.75;;;2.53;;
64842;SDS011;51310;52.198;5.422;2024-01-10T04:11:22;7.18;;;2.70;;
64842;SDS011;51310;52.198;5.422;2024-01-10T04:13:48;5.82;;;2.60;;
64842;SDS011;51310;52.198;5.422;2024-01-10T04:16:14;3.90;;;2.25;;
64842;SDS011;51310;52.198;5.422;2024-01-10T04:18:39;4.90;;;2.45;;
64842;SDS011;51310;52.198;5.422;2024-01-10T04:21:05;5.38;;;2.92;;
64842;SDS011;51310;52.198;5.422;2024-01-10T04:23:32;3.30;;;1.92;;
64842;SDS011;51310;52.198;5.422;2024-01-10T04:25:58;4.85;;;2.60;;
64842;SDS011;51310;52.198;5.422;2024-01-10T04:28:28;5.68;;;2.22;;
64842;SDS011;51310;52.198;5.422;2024-01-10T04:30:54;7.72;;;2.45;;
64842;SDS011;51310;52.198;5.422;2024-01-10T04:33:20;4.78;;;2.55;;
64842;SDS011;51310;52.198;5.422;2024-01-10T04:35:46;5.40;;;3.05;;
64842;SDS011;51310;52.198;5.422;2024-01-10T04:38:11;5.80;;;3.28;;
64842;SDS011;51310;52.198;5.422;2024-01-10T04:40:37;7.03;;;2.58;;
64842;SDS011;51310;52.198;5.422;2024-01-10T04:43:03;6.00;;;2.45;;
64842;SDS011;51310;52.198;5.422;2024-01-10T04:45:30;7.50;;;3.38;;
64842;SDS011;51310;52.198;5.422;2024-01-10T04:47:56;7.93;;;2.35;;
64842;SDS011;51310;52.198;5.422;2024-01-10T04:50:21;7.80;;;3.42;;
64842;SDS011;51310;52.198;5.422;2024-01-10T04:52:47;4.22;;;2.65;;
64842;SDS011;51310;52.198;5.422;2024-01-10T04:55:13;11.88;;;3.03;;
64842;SDS011;51310;52.198;5.422;2024-01-10T04:57:39;5.55;;;2.88;;
64842;SDS011;51310;52.198;5.422;2024-01-10T05:00:05;6.82;;;2.92;;
64842;SDS011;51310;52.198;5.422;2024-01-10T05:02:32;5.80;;;2.72;;
64842;SDS011;51310;52.198;5.422;2024-01-10T05:04:58;11.20;;;3.55;;
64842;SDS011;51310;52.198;5.422;2024-01-10T05:07:24;7.85;;;2.97;;
64842;SDS011;51310;52.198;5.422;2024-01-10T05:09:50;7.68;;;3.08;;
64842;SDS011;51310;52.198;5.422;2024-01-10T05:12:16;9.45;;;3.20;;
64842;SDS011;51310;52.198;5.422;2024-01-10T05:14:42;5.00;;;3.40;;
64842;SDS011;51310;52.198;5.422;2024-01-10T05:17:08;6.45;;;3.15;;
64842;SDS011;51310;52.198;5.422;2024-01-10T05:19:34;9.60;;;3.55;;
64842;SDS011;51310;52.198;5.422;2024-01-10T05:21:59;7.50;;;3.83;;
64842;SDS011;51310;52.198;5.422;2024-01-10T05:24:25;6.25;;;2.78;;
64842;SDS011;51310;52.198;5.422;2024-01-10T05:26:51;6.82;;;4.10;;
64842;SDS011;51310;52.198;5.422;2024-01-10T05:29:17;5.88;;;2.58;;
64842;SDS011;51310;52.198;5.422;2024-01-10T05:31:44;9.50;;;4.18;;
64842;SDS011;51310;52.198;5.422;2024-01-10T05:34:11;6.30;;;2.80;;
64842;SDS011;51310;52.198;5.422;2024-01-10T05:36:37;8.07;;;3.40;;
64842;SDS011;51310;52.198;5.422;2024-01-10T05:39:03;8.18;;;3.03;;
64842;SDS011;51310;52.198;5.422;2024-01-10T05:41:29;7.53;;;2.78;;
64842;SDS011;51310;52.198;5.422;2024-01-10T05:43:55;5.97;;;2.95;;
64842;SDS011;51310;52.198;5.422;2024-01-10T05:46:21;5.55;;;3.15;;
64842;SDS011;51310;52.198;5.422;2024-01-10T05:48:47;6.47;;;3.60;;
64842;SDS011;51310;52.198;5.422;2024-01-10T05:51:13;10.55;;;3.22;;
64842;SDS011;51310;52.198;5.422;2024-01-10T05:53:39;7.40;;;3.33;;
64842;SDS011;51310;52.198;5.422;2024-01-10T05:56:06;7.53;;;3.03;;
64842;SDS011;51310;52.198;5.422;2024-01-10T05:58:32;5.90;;;2.75;;
64842;SDS011;51310;52.198;5.422;2024-01-10T06:00:58;6.10;;;3.55;;
64842;SDS011;51310;52.198;5.422;2024-01-10T06:03:24;9.45;;;3.50;;
64842;SDS011;51310;52.198;5.422;2024-01-10T06:05:50;9.20;;;3.72;;
64842;SDS011;51310;52.198;5.422;2024-01-10T06:08:16;9.52;;;3.70;;
64842;SDS011;51310;52.198;5.422;2024-01-10T06:10:42;7.70;;;3.13;;
64842;SDS011;51310;52.198;5.422;2024-01-10T06:13:08;6.13;;;3.05;;
64842;SDS011;51310;52.198;5.422;2024-01-10T06:15:34;6.63;;;3.97;;
64842;SDS011;51310;52.198;5.422;2024-01-10T06:17:59;5.05;;;2.95;;
64842;SDS011;51310;52.198;5.422;2024-01-10T06:20:25;8.73;;;3.38;;
64842;SDS011;51310;52.198;5.422;2024-01-10T06:22:51;13.63;;;4.25;;
64842;SDS011;51310;52.198;5.422;2024-01-10T06:25:17;7.22;;;3.78;;
64842;SDS011;51310;52.198;5.422;2024-01-10T06:27:43;10.10;;;3.80;;
64842;SDS011;51310;52.198;5.422;2024-01-10T06:30:09;8.85;;;2.95;;
64842;SDS011;51310;52.198;5.422;2024-01-10T06:32:36;3.72;;;2.70;;
64842;SDS011;51310;52.198;5.422;2024-01-10T06:35:01;8.45;;;3.42;;
64842;SDS011;51310;52.198;5.422;2024-01-10T06:37:29;6.63;;;3.35;;
64842;SDS011;51310;52.198;5.422;2024-01-10T06:39:55;5.93;;;3.40;;
64842;SDS011;51310;52.198;5.422;2024-01-10T06:42:21;8.73;;;3.10;;
64842;SDS011;51310;52.198;5.422;2024-01-10T06:44:47;6.72;;;3.20;;
64842;SDS011;51310;52.198;5.422;2024-01-10T06:47:13;5.60;;;2.67;;
64842;SDS011;51310;52.198;5.422;2024-01-10T06:49:39;3.83;;;2.33;;
64842;SDS011;51310;52.198;5.422;2024-01-10T06:52:05;8.38;;;2.88;;
64842;SDS011;51310;52.198;5.422;2024-01-10T06:54:33;3.88;;;1.85;;
64842;SDS011;51310;52.198;5.422;2024-01-10T06:56:58;9.45;;;3.53;;
64842;SDS011;51310;52.198;5.422;2024-01-10T06:59:24;9.35;;;3.28;;
64842;SDS011;51310;52.198;5.422;2024-01-10T07:01:51;4.53;;;2.33;;
64842;SDS011;51310;52.198;5.422;2024-01-10T07:04:18;5.63;;;3.15;;
64842;SDS011;51310;52.198;5.422;2024-01-10T07:06:47;9.20;;;3.35;;
64842;SDS011;51310;52.198;5.422;2024-01-10T07:09:13;7.32;;;3.85;;
64842;SDS011;51310;52.198;5.422;2024-01-10T07:11:44;8.43;;;3.50;;
64842;SDS011;51310;52.198;5.422;2024-01-10T07:14:13;5.07;;;2.63;;
64842;SDS011;51310;52.198;5.422;2024-01-10T07:16:40;11.57;;;2.95;;
64842;SDS011;51310;52.198;5.422;2024-01-10T07:19:10;5.97;;;2.55;;
64842;SDS011;51310;52.198;5.422;2024-01-10T07:21:40;4.80;;;2.72;;
64842;SDS011;51310;52.198;5.422;2024-01-10T07:24:07;8.95;;;3.63;;
64842;SDS011;51310;52.198;5.422;2024-01-10T07:26:35;9.02;;;3.30;;
64842;SDS011;51310;52.198;5.422;2024-01-10T07:29:01;4.72;;;2.30;;
64842;SDS011;51310;52.198;5.422;2024-01-10T07:31:28;12.05;;;3.80;;
64842;SDS011;51310;52.198;5.422;2024-01-10T07:33:57;8.13;;;3.53;;
64842;SDS011;51310;52.198;5.422;2024-01-10T07:36:23;6.18;;;2.60;;
64842;SDS011;51310;52.198;5.422;2024-01-10T07:38:54;10.73;;;3.80;;
64842;SDS011;51310;52.198;5.422;2024-01-10T07:41:24;7.85;;;3.15;;
64842;SDS011;51310;52.198;5.422;2024-01-10T07:43:50;11.43;;;4.35;;
64842;SDS011;51310;52.198;5.422;2024-01-10T07:46:16;21.08;;;3.83;;
64842;SDS011;51310;52.198;5.422;2024-01-10T07:48:42;5.40;;;2.42;;
64842;SDS011;51310;52.198;5.422;2024-01-10T07:51:08;8.25;;;4.43;;
64842;SDS011;51310;52.198;5.422;2024-01-10T07:53:34;11.95;;;3.88;;
64842;SDS011;51310;52.198;5.422;2024-01-10T07:56:01;13.85;;;5.47;;
64842;SDS011;51310;52.198;5.422;2024-01-10T07:58:27;19.23;;;5.20;;
64842;SDS011;51310;52.198;5.422;2024-01-10T08:00:53;14.52;;;4.80;;
64842;SDS011;51310;52.198;5.422;2024-01-10T08:03:19;15.57;;;5.78;;
64842;SDS011;51310;52.198;5.422;2024-01-10T08:05:45;10.95;;;4.43;;
64842;SDS011;51310;52.198;5.422;2024-01-10T08:08:11;13.15;;;5.88;;
64842;SDS011;51310;52.198;5.422;2024-01-10T08:10:38;11.88;;;5.00;;
64842;SDS011;51310;52.198;5.422;2024-01-10T08:13:05;30.63;;;5.68;;
64842;SDS011;51310;52.198;5.422;2024-01-10T08:15:31;8.73;;;3.65;;
64842;SDS011;51310;52.198;5.422;2024-01-10T08:17:59;9.15;;;4.53;;
64842;SDS011;51310;52.198;5.422;2024-01-10T08:20:28;12.75;;;5.18;;
64842;SDS011;51310;52.198;5.422;2024-01-10T08:22:54;14.07;;;4.93;;
64842;SDS011;51310;52.198;5.422;2024-01-10T08:25:20;17.55;;;7.13;;
64842;SDS011;51310;52.198;5.422;2024-01-10T08:27:47;13.60;;;5.80;;
64842;SDS011;51310;52.198;5.422;2024-01-10T08:30:14;12.15;;;4.35;;
64842;SDS011;51310;52.198;5.422;2024-01-10T08:32:40;12.18;;;4.68;;
64842;SDS011;51310;52.198;5.422;2024-01-10T08:35:06;8.32;;;3.88;;
64842;SDS011;51310;52.198;5.422;2024-01-10T08:37:36;13.27;;;3.78;;
64842;SDS011;51310;52.198;5.422;2024-01-10T08:40:02;8.98;;;3.65;;
64842;SDS011;51310;52.198;5.422;2024-01-10T08:42:34;10.80;;;4.50;;
64842;SDS011;51310;52.198;5.422;2024-01-10T08:45:00;11.23;;;3.90;;
64842;SDS011;51310;52.198;5.422;2024-01-10T08:47:26;9.00;;;3.55;;
64842;SDS011;51310;52.198;5.422;2024-01-10T08:49:52;7.57;;;3.33;;
64842;SDS011;51310;52.198;5.422;2024-01-10T08:52:18;9.32;;;4.30;;
64842;SDS011;51310;52.198;5.422;2024-01-10T08:54:44;7.43;;;2.78;;
64842;SDS011;51310;52.198;5.422;2024-01-10T08:57:10;8.63;;;3.78;;
64842;SDS011;51310;52.198;5.422;2024-01-10T08:59:36;10.15;;;3.05;;
64842;SDS011;51310;52.198;5.422;2024-01-10T09:02:02;8.23;;;3.58;;
64842;SDS011;51310;52.198;5.422;2024-01-10T09:04:28;7.53;;;4.63;;
64842;SDS011;51310;52.198;5.422;2024-01-10T09:06:54;6.63;;;3.17;;
64842;SDS011;51310;52.198;5.422;2024-01-10T09:09:20;9.68;;;2.95;;
64842;SDS011;51310;52.198;5.422;2024-01-10T09:11:46;9.25;;;3.50;;
64842;SDS011;51310;52.198;5.422;2024-01-10T09:14:13;10.73;;;3.00;;
64842;SDS011;51310;52.198;5.422;2024-01-10T09:16:39;12.55;;;4.05;;
64842;SDS011;51310;52.198;5.422;2024-01-10T09:19:05;6.20;;;3.03;;
64842;SDS011;51310;52.198;5.422;2024-01-10T09:21:31;7.13;;;3.30;;
64842;SDS011;51310;52.198;5.422;2024-01-10T09:23:57;9.77;;;3.58;;
64842;SDS011;51310;52.198;5.422;2024-01-10T09:26:23;12.02;;;3.55;;
64842;SDS011;51310;52.198;5.422;2024-01-10T09:28:49;9.52;;;3.35;;
64842;SDS011;51310;52.198;5.422;2024-01-10T09:31:15;6.25;;;3.85;;
64842;SDS011;51310;52.198;5.422;2024-01-10T09:33:40;9.80;;;4.07;;
64842;SDS011;51310;52.198;5.422;2024-01-10T09:36:06;12.00;;;3.83;;
64842;SDS011;51310;52.198;5.422;2024-01-10T09:38:35;14.10;;;3.50;;
64842;SDS011;51310;52.198;5.422;2024-01-10T09:41:02;10.73;;;3.75;;
64842;SDS011;51310;52.198;5.422;2024-01-10T09:43:30;8.02;;;3.60;;
64842;SDS011;51310;52.198;5.422;2024-01-10T09:45:58;5.90;;;3.08;;
64842;SDS011;51310;52.198;5.422;2024-01-10T09:48:27;8.35;;;3.55;;
64842;SDS011;51310;52.198;5.422;2024-01-10T09:50:55;8.77;;;3.47;;
64842;SDS011;51310;52.198;5.422;2024-01-10T09:53:22;7.63;;;3.40;;
64842;SDS011;51310;52.198;5.422;2024-01-10T09:55:55;7.22;;;3.80;;
64842;SDS011;51310;52.198;5.422;2024-01-10T09:58:26;11.55;;;3.55;;
64842;SDS011;51310;52.198;5.422;2024-01-10T10:00:52;10.38;;;3.22;;
64842;SDS011;51310;52.198;5.422;2024-01-10T10:03:18;7.85;;;3.40;;
64842;SDS011;51310;52.198;5.422;2024-01-10T10:05:45;12.05;;;3.30;;
64842;SDS011;51310;52.198;5.422;2024-01-10T10:08:11;8.30;;;3.60;;
64842;SDS011;51310;52.198;5.422;2024-01-10T10:10:40;10.85;;;3.47;;
64842;SDS011;51310;52.198;5.422;2024-01-10T10:13:10;7.32;;;3.83;;
64842;SDS011;51310;52.198;5.422;2024-01-10T10:16:02;8.70;;;3.83;;
64842;SDS011;51310;52.198;5.422;2024-01-10T10:18:29;7.30;;;2.88;;
64842;SDS011;51310;52.198;5.422;2024-01-10T10:21:09;10.40;;;3.85;;
64842;SDS011;51310;52.198;5.422;2024-01-10T10:23:39;9.35;;;4.07;;
64842;SDS011;51310;52.198;5.422;2024-01-10T10:26:12;7.55;;;4.35;;
64842;SDS011;51310;52.198;5.422;2024-01-10T10:28:45;9.30;;;3.13;;
64842;SDS011;51310;52.198;5.422;2024-01-10T10:31:13;11.10;;;4.10;;
64842;SDS011;51310;52.198;5.422;2024-01-10T10:33:42;7.63;;;3.55;;
64842;SDS011;51310;52.198;5.422;2024-01-10T10:36:13;6.60;;;3.17;;
64842;SDS011;51310;52.198;5.422;2024-01-10T10:38:40;9.77;;;4.40;;
64842;SDS011;51310;52.198;5.422;2024-01-10T10:41:06;7.15;;;3.95;;
64842;SDS011;51310;52.198;5.422;2024-01-10T10:43:36;8.93;;;3.10;;
64842;SDS011;51310;52.198;5.422;2024-01-10T10:46:04;8.23;;;3.60;;
64842;SDS011;51310;52.198;5.422;2024-01-10T10:48:35;6.57;;;3.75;;
64842;SDS011;51310;52.198;5.422;2024-01-10T10:53:44;10.25;;;3.92;;
64842;SDS011;51310;52.198;5.422;2024-01-10T10:56:12;11.75;;;4.15;;
64842;SDS011;51310;52.198;5.422;2024-01-10T10:58:39;8.93;;;4.28;;
64842;SDS011;51310;52.198;5.422;2024-01-10T11:01:09;10.63;;;3.67;;
64842;SDS011;51310;52.198;5.422;2024-01-10T11:03:40;9.27;;;3.58;;
64842;SDS011;51310;52.198;5.422;2024-01-10T11:06:12;9.13;;;4.57;;
64842;SDS011;51310;52.198;5.422;2024-01-10T11:14:35;15.20;;;5.00;;
64842;SDS011;51310;52.198;5.422;2024-01-10T11:26:14;8.93;;;3.53;;
64842;SDS011;51310;52.198;5.422;2024-01-10T11:28:41;8.23;;;3.65;;
64842;SDS011;51310;52.198;5.422;2024-01-10T11:31:07;11.52;;;4.18;;
64842;SDS011;51310;52.198;5.422;2024-01-10T11:33:35;16.92;;;4.00;;
64842;SDS011;51310;52.198;5.422;2024-01-10T11:36:11;18.65;;;4.90;;
64842;SDS011;51310;52.198;5.422;2024-01-10T11:41:35;12.20;;;4.45;;
64842;SDS011;51310;52.198;5.422;2024-01-10T11:49:12;9.20;;;3.92;;
64842;SDS011;51310;52.198;5.422;2024-01-10T11:51:48;7.25;;;3.90;;
64842;SDS011;51310;52.198;5.422;2024-01-10T11:54:35;9.48;;;3.83;;
64842;SDS011;51310;52.198;5.422;2024-01-10T11:57:07;12.98;;;4.45;;
64842;SDS011;51310;52.198;5.422;2024-01-10T11:59:57;7.90;;;3.60;;
64842;SDS011;51310;52.198;5.422;2024-01-10T12:02:28;10.55;;;4.28;;
64842;SDS011;51310;52.198;5.422;2024-01-10T12:04:55;8.23;;;4.85;;
64842;SDS011;51310;52.198;5.422;2024-01-10T12:07:21;10.68;;;4.78;;
64842;SDS011;51310;52.198;5.422;2024-01-10T12:09:48;10.18;;;4.43;;
64842;SDS011;51310;52.198;5.422;2024-01-10T12:12:15;10.63;;;4.95;;
64842;SDS011;51310;52.198;5.422;2024-01-10T12:14:41;10.05;;;5.00;;
64842;SDS011;51310;52.198;5.422;2024-01-10T12:17:11;6.90;;;3.92;;
64842;SDS011;51310;52.198;5.422;2024-01-10T12:19:37;8.20;;;4.00;;
64842;SDS011;51310;52.198;5.422;2024-01-10T12:22:06;12.85;;;4.00;;
64842;SDS011;51310;52.198;5.422;2024-01-10T12:24:33;13.20;;;5.00;;
64842;SDS011;51310;52.198;5.422;2024-01-10T12:26:59;10.88;;;4.80;;
64842;SDS011;51310;52.198;5.422;2024-01-10T12:29:25;8.23;;;4.10;;
64842;SDS011;51310;52.198;5.422;2024-01-10T12:31:51;9.20;;;3.97;;
64842;SDS011;51310;52.198;5.422;2024-01-10T12:34:18;9.32;;;4.25;;
64842;SDS011;51310;52.198;5.422;2024-01-10T12:36:47;10.52;;;4.03;;
64842;SDS011;51310;52.198;5.422;2024-01-10T12:39:13;9.32;;;4.10;;
64842;SDS011;51310;52.198;5.422;2024-01-10T12:41:40;9.55;;;3.88;;
64842;SDS011;51310;52.198;5.422;2024-01-10T12:44:06;9.38;;;4.18;;
64842;SDS011;51310;52.198;5.422;2024-01-10T12:46:32;9.68;;;4.43;;
64842;SDS011;51310;52.198;5.422;2024-01-10T12:49:02;10.13;;;4.28;;
64842;SDS011;51310;52.198;5.422;2024-01-10T12:51:32;10.77;;;4.10;;
64842;SDS011;51310;52.198;5.422;2024-01-10T12:54:03;7.75;;;4.28;;
64842;SDS011;51310;52.198;5.422;2024-01-10T12:56:29;9.45;;;4.43;;
64842;SDS011;51310;52.198;5.422;2024-01-10T12:58:56;11.25;;;3.95;;
64842;SDS011;51310;52.198;5.422;2024-01-10T13:01:24;11.82;;;4.35;;
64842;SDS011;51310;52.198;5.422;2024-01-10T13:03:51;9.27;;;5.25;;
64842;SDS011;51310;52.198;5.422;2024-01-10T13:06:18;9.77;;;4.72;;
64842;SDS011;51310;52.198;5.422;2024-01-10T13:08:47;11.88;;;4.35;;
64842;SDS011;51310;52.198;5.422;2024-01-10T13:11:14;14.48;;;4.00;;
64842;SDS011;51310;52.198;5.422;2024-01-10T13:13:40;7.63;;;3.38;;
64842;SDS011;51310;52.198;5.422;2024-01-10T13:16:08;8.55;;;4.10;;
64842;SDS011;51310;52.198;5.422;2024-01-10T13:18:38;9.13;;;3.47;;
64842;SDS011;51310;52.198;5.422;2024-01-10T13:21:04;9.63;;;4.25;;
64842;SDS011;51310;52.198;5.422;2024-01-10T13:23:31;9.82;;;3.78;;
64842;SDS011;51310;52.198;5.422;2024-01-10T13:25:58;7.70;;;4.13;;
64842;SDS011;51310;52.198;5.422;2024-01-10T13:28:24;11.38;;;4.07;;
64842;SDS011;51310;52.198;5.422;2024-01-10T13:30:51;9.13;;;4.22;;
64842;SDS011;51310;52.198;5.422;2024-01-10T13:33:21;10.23;;;4.40;;
64842;SDS011;51310;52.198;5.422;2024-01-10T13:35:47;7.40;;;3.83;;
64842;SDS011;51310;52.198;5.422;2024-01-10T13:38:14;11.38;;;4.10;;
64842;SDS011;51310;52.198;5.422;2024-01-10T13:40:40;10.20;;;4.55;;
64842;SDS011;51310;52.198;5.422;2024-01-10T13:43:06;11.48;;;4.47;;
64842;SDS011;51310;52.198;5.422;2024-01-10T13:45:32;8.93;;;3.53;;
64842;SDS011;51310;52.198;5.422;2024-01-10T13:47:58;8.63;;;3.30;;
64842;SDS011;51310;52.198;5.422;2024-01-10T13:50:25;13.35;;;4.00;;
64842;SDS011;51310;52.198;5.422;2024-01-10T13:52:52;8.65;;;3.88;;
64842;SDS011;51310;52.198;5.422;2024-01-10T13:55:18;9.98;;;4.30;;
64842;SDS011;51310;52.198;5.422;2024-01-10T13:57:45;7.28;;;3.78;;
64842;SDS011;51310;52.198;5.422;2024-01-10T14:00:11;9.88;;;4.43;;
64842;SDS011;51310;52.198;5.422;2024-01-10T14:02:40;8.20;;;3.00;;
64842;SDS011;51310;52.198;5.422;2024-01-10T14:05:09;7.65;;;3.83;;
64842;SDS011;51310;52.198;5.422;2024-01-10T14:07:35;8.48;;;3.80;;
64842;SDS011;51310;52.198;5.422;2024-01-10T14:10:02;6.05;;;3.38;;
64842;SDS011;51310;52.198;5.422;2024-01-10T14:12:29;8.57;;;3.97;;
64842;SDS011;51310;52.198;5.422;2024-01-10T14:14:55;10.25;;;3.92;;
64842;SDS011;51310;52.198;5.422;2024-01-10T14:17:22;13.30;;;3.58;;
64842;SDS011;51310;52.198;5.422;2024-01-10T14:19:50;9.20;;;3.88;;
64842;SDS011;51310;52.198;5.422;2024-01-10T14:22:17;8.65;;;4.38;;
64842;SDS011;51310;52.198;5.422;2024-01-10T14:24:44;8.75;;;4.13;;
64842;SDS011;51310;52.198;5.422;2024-01-10T14:27:10;7.03;;;4.05;;
64842;SDS011;51310;52.198;5.422;2024-01-10T14:29:36;11.00;;;4.55;;
64842;SDS011;51310;52.198;5.422;2024-01-10T14:32:02;9.27;;;3.70;;
64842;SDS011;51310;52.198;5.422;2024-01-10T14:34:28;7.93;;;3.72;;
64842;SDS011;51310;52.198;5.422;2024-01-10T14:36:54;9.50;;;4.30;;
64842;SDS011;51310;52.198;5.422;2024-01-10T14:39:20;8.15;;;4.05;;
64842;SDS011;51310;52.198;5.422;2024-01-10T14:41:46;12.82;;;4.70;;
64842;SDS011;51310;52.198;5.422;2024-01-10T14:44:14;8.07;;;3.28;;
64842;SDS011;51310;52.198;5.422;2024-01-10T14:46:40;8.38;;;4.15;;
64842;SDS011;51310;52.198;5.422;2024-01-10T14:49:06;8.63;;;3.70;;
64842;SDS011;51310;52.198;5.422;2024-01-10T14:51:32;9.85;;;3.65;;
64842;SDS011;51310;52.198;5.422;2024-01-10T14:53:58;8.23;;;3.50;;
64842;SDS011;51310;52.198;5.422;2024-01-10T14:56:24;7.78;;;3.92;;
64842;SDS011;51310;52.198;5.422;2024-01-10T14:58:50;15.25;;;3.60;;
64842;SDS011;51310;52.198;5.422;2024-01-10T15:01:16;6.95;;;3.40;;
64842;SDS011;51310;52.198;5.422;2024-01-10T15:03:45;11.18;;;3.90;;
64842;SDS011;51310;52.198;5.422;2024-01-10T15:06:12;10.20;;;3.72;;
64842;SDS011;51310;52.198;5.422;2024-01-10T15:08:40;6.18;;;3.47;;